createdAt,value
2023-04-16T00:00:09.902Z,6.90
2023-04-16T00:02:41.341Z,5.97
2023-04-16T00:05:10.277Z,9.87
2023-04-16T00:07:38.409Z,7.70
2023-04-16T00:10:07.732Z,10.57
2023-04-16T00:15:04.965Z,13.35
2023-04-16T00:17:34.465Z,8.83
2023-04-16T00:20:02.547Z,10.95
2023-04-16T00:22:30.656Z,8.68
2023-04-16T00:24:58.751Z,9.35
2023-04-16T00:27:26.863Z,13.43
2023-04-16T00:29:54.925Z,8.88
2023-04-16T00:32:23.030Z,9.45
2023-04-16T00:34:54.213Z,10.18
2023-04-16T00:37:22.473Z,9.02
2023-04-16T00:39:51.248Z,11.10
2023-04-16T00:42:19.465Z,12.65
2023-04-16T00:44:47.608Z,12.60
2023-04-16T00:47:16.051Z,17.88
2023-04-16T00:49:44.414Z,10.17
2023-04-16T00:52:13.983Z,16.35
2023-04-16T00:54:42.269Z,16.45
2023-04-16T00:57:11.121Z,12.63
2023-04-16T00:59:39.186Z,15.57
2023-04-16T01:02:08.360Z,12.07
2023-04-16T01:04:36.799Z,18.60
2023-04-16T01:07:04.945Z,17.20
2023-04-16T01:09:34.580Z,18.25
2023-04-16T01:12:04.427Z,15.07
2023-04-16T01:14:36.274Z,18.73
2023-04-16T01:17:04.456Z,17.42
2023-04-16T01:19:32.808Z,19.50
2023-04-16T01:22:02.542Z,21.17
2023-04-16T01:24:30.834Z,17.38
2023-04-16T01:26:59.439Z,17.02
2023-04-16T01:29:27.822Z,16.80
2023-04-16T01:31:58.472Z,17.60
2023-04-16T01:34:28.899Z,15.93
2023-04-16T01:36:56.981Z,19.50
2023-04-16T01:39:26.424Z,20.60
2023-04-16T01:44:23.281Z,17.00
2023-04-16T01:46:51.395Z,13.68
2023-04-16T01:49:19.591Z,14.43
2023-04-16T01:51:47.850Z,21.30
2023-04-16T01:54:16.074Z,16.60
2023-04-16T01:56:46.207Z,12.32
2023-04-16T01:59:14.350Z,14.60
2023-04-16T02:01:43.580Z,12.27
2023-04-16T02:04:12.890Z,11.57
2023-04-16T02:06:41.199Z,14.32
2023-04-16T02:09:09.765Z,16.45
2023-04-16T02:11:39.238Z,14.98
2023-04-16T02:14:09.884Z,10.50
2023-04-16T02:16:37.996Z,13.65
2023-04-16T02:19:27.670Z,14.23
2023-04-16T02:21:56.114Z,15.15
2023-04-16T02:24:24.159Z,14.98
2023-04-16T02:26:52.367Z,18.23
2023-04-16T02:29:22.661Z,14.13
2023-04-16T02:31:57.772Z,16.58
2023-04-16T02:34:26.054Z,20.70
2023-04-16T02:36:55.196Z,15.68
2023-04-16T02:39:23.413Z,18.58
2023-04-16T02:41:52.497Z,18.73
2023-04-16T02:44:22.726Z,15.90
2023-04-16T02:46:50.973Z,22.58
2023-04-16T02:49:19.131Z,19.88
2023-04-16T02:51:47.183Z,16.65
2023-04-16T02:54:15.648Z,22.77
2023-04-16T02:56:44.417Z,16.30
2023-04-16T02:59:12.525Z,26.48
2023-04-16T03:01:42.138Z,30.48
2023-04-16T03:04:10.632Z,31.23
2023-04-16T03:06:41.236Z,26.60
2023-04-16T03:09:09.470Z,25.42
2023-04-16T03:11:37.995Z,30.30
2023-04-16T03:14:06.570Z,21.40
2023-04-16T03:16:34.649Z,50.03
2023-04-16T03:19:04.163Z,22.85
2023-04-16T03:21:32.557Z,33.88
2023-04-16T03:24:00.691Z,59.87
2023-04-16T03:26:28.875Z,33.83
2023-04-16T03:28:57.072Z,56.80
2023-04-16T03:31:25.686Z,53.85
2023-04-16T03:33:55.219Z,45.25
2023-04-16T03:36:25.476Z,61.63
2023-04-16T03:38:53.770Z,66.18
2023-04-16T03:41:22.037Z,27.85
2023-04-16T03:43:50.143Z,39.38
2023-04-16T03:46:18.179Z,34.47
2023-04-16T03:48:47.079Z,65.45
2023-04-16T03:51:15.460Z,42.20
2023-04-16T03:53:45.111Z,55.83
2023-04-16T03:56:14.955Z,54.22
2023-04-16T03:58:44.314Z,53.53
2023-04-16T04:03:40.696Z,55.35
2023-04-16T04:06:09.574Z,57.40
2023-04-16T04:08:38.175Z,57.40
2023-04-16T04:11:08.881Z,68.15
2023-04-16T04:13:37.766Z,56.78
2023-04-16T04:16:06.869Z,102.47
2023-04-16T04:18:35.033Z,72.72
2023-04-16T04:21:07.252Z,51.97
2023-04-16T04:23:35.815Z,59.28
2023-04-16T04:26:07.459Z,74.20
2023-04-16T04:28:37.278Z,68.18
2023-04-16T04:31:06.345Z,33.20
2023-04-16T04:33:34.841Z,36.17
2023-04-16T04:36:03.362Z,32.88
2023-04-16T04:38:33.249Z,56.33
2023-04-16T04:41:01.704Z,28.92
2023-04-16T04:43:34.346Z,53.10
2023-04-16T04:46:04.244Z,35.97
2023-04-16T04:48:33.407Z,48.42
2023-04-16T04:51:02.987Z,51.45
2023-04-16T04:53:32.942Z,29.90
2023-04-16T04:56:09.157Z,57.92
2023-04-16T05:01:09.784Z,33.25
2023-04-16T05:03:38.356Z,58.10
2023-04-16T05:06:06.915Z,83.35
2023-04-16T05:08:37.977Z,61.80
2023-04-16T05:11:06.458Z,80.53
2023-04-16T05:13:34.724Z,65.57
2023-04-16T05:16:02.860Z,95.85
2023-04-16T05:18:36.289Z,75.13
2023-04-16T05:21:04.587Z,84.43
2023-04-16T05:23:32.719Z,71.72
2023-04-16T05:26:00.777Z,43.15
2023-04-16T05:28:28.864Z,72.10
2023-04-16T05:30:56.978Z,50.28
2023-04-16T05:33:25.257Z,43.17
2023-04-16T05:35:54.863Z,63.55
2023-04-16T05:38:23.001Z,33.53
2023-04-16T05:40:50.998Z,55.05
2023-04-16T05:43:19.016Z,57.38
2023-04-16T05:45:47.059Z,51.30
2023-04-16T05:48:15.232Z,35.55
2023-04-16T05:50:44.497Z,28.35
2023-04-16T05:53:14.554Z,25.85
2023-04-16T05:55:42.858Z,23.77
2023-04-16T05:58:10.978Z,24.13
2023-04-16T06:00:39.092Z,33.67
2023-04-16T06:03:07.458Z,37.92
2023-04-16T06:05:35.920Z,35.17
2023-04-16T06:08:03.935Z,46.28
2023-04-16T06:10:33.673Z,40.70
2023-04-16T06:13:01.838Z,26.10
2023-04-16T06:15:30.341Z,20.35
2023-04-16T06:18:00.698Z,23.50
2023-04-16T06:20:29.228Z,47.45
2023-04-16T06:22:57.614Z,33.22
2023-04-16T06:25:25.798Z,25.50
2023-04-16T06:27:55.551Z,40.03
2023-04-16T06:30:23.636Z,22.58
2023-04-16T06:32:51.861Z,21.63
2023-04-16T06:35:20.798Z,22.20
2023-04-16T06:37:48.824Z,19.42
2023-04-16T06:40:17.061Z,17.80
2023-04-16T06:42:45.723Z,16.50
2023-04-16T06:45:15.535Z,20.42
2023-04-16T06:47:43.654Z,17.00
2023-04-16T06:50:12.338Z,15.60
2023-04-16T06:52:40.549Z,20.58
2023-04-16T06:55:10.198Z,19.33
2023-04-16T06:57:40.876Z,14.30
2023-04-16T07:00:10.268Z,15.90
2023-04-16T07:05:09.164Z,19.63
2023-04-16T07:07:37.228Z,24.13
2023-04-16T07:10:05.915Z,30.20
2023-04-16T07:12:34.139Z,19.77
2023-04-16T07:15:02.639Z,30.33
2023-04-16T07:17:30.775Z,32.55
2023-04-16T07:20:00.665Z,36.08
2023-04-16T07:22:28.759Z,26.67
2023-04-16T07:24:57.214Z,16.35
2023-04-16T07:27:25.432Z,38.43
2023-04-16T07:29:54.920Z,33.88
2023-04-16T07:32:23.919Z,30.13
2023-04-16T07:34:52.190Z,27.48
2023-04-16T07:37:22.031Z,32.00
2023-04-16T07:39:51.997Z,28.75
2023-04-16T07:42:20.124Z,21.63
2023-04-16T07:44:48.281Z,21.08
2023-04-16T07:47:16.401Z,19.60
2023-04-16T07:49:44.529Z,29.85
2023-04-16T07:52:13.052Z,34.10
2023-04-16T07:54:42.620Z,19.80
2023-04-16T07:57:11.687Z,26.80
2023-04-16T07:59:39.948Z,22.75
2023-04-16T08:02:09.051Z,18.65
2023-04-16T08:04:37.584Z,19.92
2023-04-16T08:07:05.831Z,21.65
2023-04-16T08:09:35.058Z,21.38
2023-04-16T08:12:05.200Z,15.32
2023-04-16T08:14:33.620Z,15.10
2023-04-16T08:17:01.820Z,15.07
2023-04-16T08:19:30.097Z,12.40
2023-04-16T08:21:58.355Z,14.85
2023-04-16T08:24:27.220Z,15.98
2023-04-16T08:26:58.404Z,14.13
2023-04-16T08:29:32.105Z,12.43
2023-04-16T08:32:00.668Z,17.55
2023-04-16T08:34:28.804Z,19.25
2023-04-16T08:36:56.949Z,14.15
2023-04-16T08:39:25.064Z,14.05
2023-04-16T08:41:58.203Z,12.30
2023-04-16T08:44:28.816Z,11.90
2023-04-16T08:46:59.291Z,12.15
2023-04-16T08:49:28.299Z,14.02
2023-04-16T08:51:57.772Z,11.02
2023-04-16T08:54:36.077Z,11.38
2023-04-16T08:57:07.898Z,11.10
2023-04-16T08:59:36.647Z,14.45
2023-04-16T09:02:07.700Z,30.58
2023-04-16T09:04:39.173Z,15.77
2023-04-16T09:07:09.563Z,36.42
2023-04-16T09:09:39.856Z,11.60
2023-04-16T09:12:09.908Z,25.50
2023-04-16T09:14:41.881Z,14.82
2023-04-16T09:17:14.229Z,14.10
2023-04-16T09:19:42.356Z,12.73
2023-04-16T09:22:10.542Z,11.38
2023-04-16T09:24:39.318Z,12.43
2023-04-16T09:27:08.856Z,11.82
2023-04-16T09:29:37.736Z,11.00
2023-04-16T09:32:07.589Z,12.18
2023-04-16T09:34:55.766Z,14.00
2023-04-16T09:37:23.939Z,11.48
2023-04-16T09:39:56.910Z,12.38
2023-04-16T09:42:27.458Z,14.55
2023-04-16T09:44:59.379Z,14.65
2023-04-16T09:47:41.190Z,22.40
2023-04-16T09:50:17.804Z,16.65
2023-04-16T09:52:49.746Z,22.17
2023-04-16T09:55:19.243Z,17.80
2023-04-16T09:57:49.341Z,15.65
2023-04-16T10:00:20.223Z,30.60
2023-04-16T10:02:50.653Z,16.77
2023-04-16T10:05:21.402Z,24.80
2023-04-16T10:07:50.179Z,19.88
2023-04-16T10:10:18.619Z,20.40
2023-04-16T10:12:46.773Z,36.73
2023-04-16T10:15:15.067Z,27.40
2023-04-16T10:17:45.101Z,33.88
2023-04-16T10:20:14.228Z,32.10
2023-04-16T10:22:45.290Z,29.67
2023-04-16T10:25:14.033Z,21.23
2023-04-16T10:27:42.619Z,21.50
2023-04-16T10:30:13.227Z,26.00
2023-04-16T10:32:42.968Z,24.40
2023-04-16T10:35:15.920Z,24.30
2023-04-16T10:37:45.711Z,40.47
2023-04-16T10:40:24.864Z,28.48
2023-04-16T10:42:59.734Z,33.55
2023-04-16T10:45:31.794Z,23.33
2023-04-16T10:48:00.355Z,28.95
2023-04-16T10:50:36.624Z,25.80
2023-04-16T10:53:30.082Z,26.52
2023-04-16T10:56:13.905Z,26.95
2023-04-16T10:58:42.774Z,22.08
2023-04-16T11:01:17.142Z,28.17
2023-04-16T11:03:48.548Z,23.23
2023-04-16T11:06:18.615Z,29.02
2023-04-16T11:08:54.659Z,24.20
2023-04-16T11:11:24.246Z,24.27
2023-04-16T11:13:57.268Z,23.98
2023-04-16T11:16:27.474Z,24.10
2023-04-16T11:18:57.241Z,32.30
2023-04-16T11:21:27.176Z,32.33
2023-04-16T11:23:59.643Z,28.60
2023-04-16T11:26:31.522Z,30.52
2023-04-16T11:29:00.319Z,28.02
2023-04-16T11:31:28.709Z,25.85
2023-04-16T11:33:58.022Z,30.30
2023-04-16T11:39:04.743Z,30.75
2023-04-16T11:41:32.877Z,28.63
2023-04-16T11:44:01.484Z,23.58
2023-04-16T11:46:39.775Z,25.17
2023-04-16T11:49:08.115Z,25.53
2023-04-16T11:51:41.319Z,22.00
2023-04-16T11:54:12.301Z,25.13
2023-04-16T11:56:54.367Z,22.30
2023-04-16T11:59:24.023Z,22.02
2023-04-16T12:01:53.377Z,23.50
2023-04-16T12:09:39.526Z,19.67
2023-04-16T12:12:26.886Z,21.70
2023-04-16T12:14:57.051Z,21.80
2023-04-16T12:17:25.376Z,26.40
2023-04-16T12:19:56.866Z,24.20
2023-04-16T12:22:30.078Z,24.58
2023-04-16T12:25:04.437Z,25.95
2023-04-16T12:27:52.796Z,23.75
